sensor_id;sensor_type;location;lat;lon;timestamp;temperature;humidity
64689;DHT22;62504;46.070;14.492;2022-11-18T00:00:30;10.50;99.90
64689;DHT22;62504;46.070;14.492;2022-11-18T00:02:55;10.50;99.90
64689;DHT22;62504;46.070;14.492;2022-11-18T00:05:21;10.50;99.90
64689;DHT22;62504;46.070;14.492;2022-11-18T00:07:47;10.50;99.90
64689;DHT22;62504;46.070;14.492;2022-11-18T00:10:12;10.50;99.90
64689;DHT22;62504;46.070;14.492;2022-11-18T00:12:38;10.50;99.90
64689;DHT22;62504;46.070;14.492;2022-11-18T00:15:22;10.50;99.90
64689;DHT22;62504;46.070;14.492;2022-11-18T00:17:48;10.50;99.90
64689;DHT22;62504;46.070;14.492;2022-11-18T00:20:14;10.30;99.90
64689;DHT22;62504;46.070;14.492;2022-11-18T00:22:39;10.30;99.90
64689;DHT22;62504;46.070;14.492;2022-11-18T00:25:05;10.30;99.90
64689;DHT22;62504;46.070;14.492;2022-11-18T00:27:31;10.40;99.90
64689;DHT22;62504;46.070;14.492;2022-11-18T00:29:57;10.50;99.90
64689;DHT22;62504;46.070;14.492;2022-11-18T00:32:22;10.40;99.90
64689;DHT22;62504;46.070;14.492;2022-11-18T00:34:48;10.40;99.90
64689;DHT22;62504;46.070;14.492;2022-11-18T00:37:14;10.40;99.90
64689;DHT22;62504;46.070;14.492;2022-11-18T00:39:40;10.40;99.90
64689;DHT22;62504;46.070;14.492;2022-11-18T00:42:05;10.50;99.90
64689;DHT22;62504;46.070;14.492;2022-11-18T00:44:49;10.40;99.90
64689;DHT22;62504;46.070;14.492;2022-11-18T00:47:15;10.40;99.90
64689;DHT22;62504;46.070;14.492;2022-11-18T00:49:41;10.50;99.90
64689;DHT22;62504;46.070;14.492;2022-11-18T00:52:09;10.40;99.90
64689;DHT22;62504;46.070;14.492;2022-11-18T00:54:35;10.30;99.90
64689;DHT22;62504;46.070;14.492;2022-11-18T00:57:01;10.30;99.90
64689;DHT22;62504;46.070;14.492;2022-11-18T00:59:28;10.30;99.90
64689;DHT22;62504;46.070;14.492;2022-11-18T01:01:54;10.30;99.90
64689;DHT22;62504;46.070;14.492;2022-11-18T01:04:19;10.30;99.90
64689;DHT22;62504;46.070;14.492;2022-11-18T01:06:45;10.40;99.90
64689;DHT22;62504;46.070;14.492;2022-11-18T01:09:10;10.40;99.90
64689;DHT22;62504;46.070;14.492;2022-11-18T01:11:36;10.50;99.90
64689;DHT22;62504;46.070;14.492;2022-11-18T01:14:23;10.40;99.90
64689;DHT22;62504;46.070;14.492;2022-11-18T01:16:52;10.20;99.90
64689;DHT22;62504;46.070;14.492;2022-11-18T01:19:18;10.20;99.90
64689;DHT22;62504;46.070;14.492;2022-11-18T01:21:43;10.20;99.90
64689;DHT22;62504;46.070;14.492;2022-11-18T01:24:09;10.30;99.90
64689;DHT22;62504;46.070;14.492;2022-11-18T01:26:34;10.40;99.90
64689;DHT22;62504;46.070;14.492;2022-11-18T01:29:00;10.40;99.90
64689;DHT22;62504;46.070;14.492;2022-11-18T01:31:26;10.50;99.90
64689;DHT22;62504;46.070;14.492;2022-11-18T01:33:51;10.50;99.90
64689;DHT22;62504;46.070;14.492;2022-11-18T01:36:22;10.50;99.90
64689;DHT22;62504;46.070;14.492;2022-11-18T01:38:49;10.50;99.90
64689;DHT22;62504;46.070;14.492;2022-11-18T01:41:16;10.40;99.90
64689;DHT22;62504;46.070;14.492;2022-11-18T01:43:51;10.50;99.90
64689;DHT22;62504;46.070;14.492;2022-11-18T01:46:17;10.40;99.90
64689;DHT22;62504;46.070;14.492;2022-11-18T01:48:44;10.40;99.90
64689;DHT22;62504;46.070;14.492;2022-11-18T01:51:16;10.40;99.90
64689;DHT22;62504;46.070;14.492;2022-11-18T01:53:49;10.40;99.90
64689;DHT22;62504;46.070;14.492;2022-11-18T01:56:25;10.40;99.90
64689;DHT22;62504;46.070;14.492;2022-11-18T01:59:00;10.50;99.90
64689;DHT22;62504;46.070;14.492;2022-11-18T02:01:27;10.40;99.90
64689;DHT22;62504;46.070;14.492;2022-11-18T02:03:53;10.40;99.90
64689;DHT22;62504;46.070;14.492;2022-11-18T02:06:19;10.30;99.90
64689;DHT22;62504;46.070;14.492;2022-11-18T02:08:45;10.20;99.90
64689;DHT22;62504;46.070;14.492;2022-11-18T02:11:13;10.00;99.90
64689;DHT22;62504;46.070;14.492;2022-11-18T02:13:59;10.00;99.90
64689;DHT22;62504;46.070;14.492;2022-11-18T02:28:19;10.10;99.90
64689;DHT22;62504;46.070;14.492;2022-11-18T02:31:07;10.20;99.90
64689;DHT22;62504;46.070;14.492;2022-11-18T02:36:27;10.30;99.90
64689;DHT22;62504;46.070;14.492;2022-11-18T02:39:01;10.30;99.90
64689;DHT22;62504;46.070;14.492;2022-11-18T02:41:30;10.30;99.90
64689;DHT22;62504;46.070;14.492;2022-11-18T02:44:13;10.30;99.90
64689;DHT22;62504;46.070;14.492;2022-11-18T02:46:43;10.30;99.90
64689;DHT22;62504;46.070;14.492;2022-11-18T02:49:16;10.30;99.90
64689;DHT22;62504;46.070;14.492;2022-11-18T02:51:42;10.30;99.90
64689;DHT22;62504;46.070;14.492;2022-11-18T02:54:11;10.30;99.90
64689;DHT22;62504;46.070;14.492;2022-11-18T02:56:38;10.40;99.90
64689;DHT22;62504;46.070;14.492;2022-11-18T02:59:04;10.30;99.90
64689;DHT22;62504;46.070;14.492;2022-11-18T03:01:33;10.30;99.90
64689;DHT22;62504;46.070;14.492;2022-11-18T03:04:05;10.30;99.90
64689;DHT22;62504;46.070;14.492;2022-11-18T03:06:35;10.20;99.90
64689;DHT22;62504;46.070;14.492;2022-11-18T03:25:47;10.10;99.90
64689;DHT22;62504;46.070;14.492;2022-11-18T03:31:15;10.10;99.90
64689;DHT22;62504;46.070;14.492;2022-11-18T03:33:51;10.20;99.90
64689;DHT22;62504;46.070;14.492;2022-11-18T03:36:20;10.30;99.90
64689;DHT22;62504;46.070;14.492;2022-11-18T03:38:50;10.40;99.90
64689;DHT22;62504;46.070;14.492;2022-11-18T03:41:18;10.30;99.90
64689;DHT22;62504;46.070;14.492;2022-11-18T03:44:00;10.40;99.90
64689;DHT22;62504;46.070;14.492;2022-11-18T03:47:00;10.30;99.90
64689;DHT22;62504;46.070;14.492;2022-11-18T03:49:39;10.40;99.90
64689;DHT22;62504;46.070;14.492;2022-11-18T03:52:25;10.40;99.90
64689;DHT22;62504;46.070;14.492;2022-11-18T03:54:55;10.40;99.90
64689;DHT22;62504;46.070;14.492;2022-11-18T04:00:31;10.30;99.90
64689;DHT22;62504;46.070;14.492;2022-11-18T04:02:57;10.30;99.90
64689;DHT22;62504;46.070;14.492;2022-11-18T04:05:22;10.20;99.90
64689;DHT22;62504;46.070;14.492;2022-11-18T04:10:18;10.20;99.90
64689;DHT22;62504;46.070;14.492;2022-11-18T04:15:17;10.30;99.90
64689;DHT22;62504;46.070;14.492;2022-11-18T04:17:43;10.30;99.90
64689;DHT22;62504;46.070;14.492;2022-11-18T04:20:20;10.40;99.90
64689;DHT22;62504;46.070;14.492;2022-11-18T04:22:46;10.40;99.90
64689;DHT22;62504;46.070;14.492;2022-11-18T04:25:12;10.50;99.90
64689;DHT22;62504;46.070;14.492;2022-11-18T04:27:38;10.40;99.90
64689;DHT22;62504;46.070;14.492;2022-11-18T04:30:04;10.50;99.90
64689;DHT22;62504;46.070;14.492;2022-11-18T04:32:30;10.40;99.90
64689;DHT22;62504;46.070;14.492;2022-11-18T04:34:56;10.40;99.90
64689;DHT22;62504;46.070;14.492;2022-11-18T04:37:22;10.40;99.90
64689;DHT22;62504;46.070;14.492;2022-11-18T04:39:48;10.40;99.90
64689;DHT22;62504;46.070;14.492;2022-11-18T04:42:13;10.40;99.90
64689;DHT22;62504;46.070;14.492;2022-11-18T04:44:39;10.40;99.90
64689;DHT22;62504;46.070;14.492;2022-11-18T04:47:06;10.40;99.90
64689;DHT22;62504;46.070;14.492;2022-11-18T04:49:32;10.40;99.90
64689;DHT22;62504;46.070;14.492;2022-11-18T04:51:59;10.40;99.90
64689;DHT22;62504;46.070;14.492;2022-11-18T04:54:25;10.40;99.90
64689;DHT22;62504;46.070;14.492;2022-11-18T04:56:51;10.40;99.90
64689;DHT22;62504;46.070;14.492;2022-11-18T04:59:20;10.50;99.90
64689;DHT22;62504;46.070;14.492;2022-11-18T05:01:47;10.40;99.90
64689;DHT22;62504;46.070;14.492;2022-11-18T05:04:15;10.40;99.90
64689;DHT22;62504;46.070;14.492;2022-11-18T05:06:43;10.50;99.90
64689;DHT22;62504;46.070;14.492;2022-11-18T05:09:09;10.60;99.90
64689;DHT22;62504;46.070;14.492;2022-11-18T05:11:35;10.50;99.90
64689;DHT22;62504;46.070;14.492;2022-11-18T05:14:20;10.50;99.90
64689;DHT22;62504;46.070;14.492;2022-11-18T05:16:45;10.50;99.90
64689;DHT22;62504;46.070;14.492;2022-11-18T05:19:11;10.50;99.90
64689;DHT22;62504;46.070;14.492;2022-11-18T05:21:37;10.50;99.90
64689;DHT22;62504;46.070;14.492;2022-11-18T05:24:04;10.50;99.90
64689;DHT22;62504;46.070;14.492;2022-11-18T05:26:29;10.50;99.90
64689;DHT22;62504;46.070;14.492;2022-11-18T05:28:55;10.50;99.90
64689;DHT22;62504;46.070;14.492;2022-11-18T05:31:21;10.40;99.90
64689;DHT22;62504;46.070;14.492;2022-11-18T05:33:47;10.50;99.90
64689;DHT22;62504;46.070;14.492;2022-11-18T05:36:15;10.50;99.90
64689;DHT22;62504;46.070;14.492;2022-11-18T05:38:41;10.50;99.90
64689;DHT22;62504;46.070;14.492;2022-11-18T05:41:07;10.40;99.90
64689;DHT22;62504;46.070;14.492;2022-11-18T05:43:34;10.50;99.90
64689;DHT22;62504;46.070;14.492;2022-11-18T05:46:00;10.50;99.90
64689;DHT22;62504;46.070;14.492;2022-11-18T05:48:29;10.50;99.90
64689;DHT22;62504;46.070;14.492;2022-11-18T05:50:55;10.60;99.90
64689;DHT22;62504;46.070;14.492;2022-11-18T05:53:23;10.50;99.90
64689;DHT22;62504;46.070;14.492;2022-11-18T05:56:32;10.50;99.90
64689;DHT22;62504;46.070;14.492;2022-11-18T05:58:49;10.50;99.90
64689;DHT22;62504;46.070;14.492;2022-11-18T06:01:19;10.60;99.90
64689;DHT22;62504;46.070;14.492;2022-11-18T06:03:45;10.60;99.90
64689;DHT22;62504;46.070;14.492;2022-11-18T06:06:12;10.60;99.90
64689;DHT22;62504;46.070;14.492;2022-11-18T06:08:59;10.60;99.90
64689;DHT22;62504;46.070;14.492;2022-11-18T06:11:27;10.60;99.90
64689;DHT22;62504;46.070;14.492;2022-11-18T06:14:00;10.60;99.90
64689;DHT22;62504;46.070;14.492;2022-11-18T06:16:30;10.60;99.90
64689;DHT22;62504;46.070;14.492;2022-11-18T06:18:57;10.60;99.90
64689;DHT22;62504;46.070;14.492;2022-11-18T06:21:23;10.50;99.90
64689;DHT22;62504;46.070;14.492;2022-11-18T06:23:49;10.60;99.90
64689;DHT22;62504;46.070;14.492;2022-11-18T06:26:15;10.60;99.90
64689;DHT22;62504;46.070;14.492;2022-11-18T06:28:43;10.60;99.90
64689;DHT22;62504;46.070;14.492;2022-11-18T06:31:10;10.50;99.90
64689;DHT22;62504;46.070;14.492;2022-11-18T06:33:36;10.50;99.90
64689;DHT22;62504;46.070;14.492;2022-11-18T06:36:01;10.60;99.90
64689;DHT22;62504;46.070;14.492;2022-11-18T06:38:27;10.60;99.90
64689;DHT22;62504;46.070;14.492;2022-11-18T06:40:53;10.50;99.90
64689;DHT22;62504;46.070;14.492;2022-11-18T06:43:22;10.50;99.90
64689;DHT22;62504;46.070;14.492;2022-11-18T06:46:04;10.60;99.90
64689;DHT22;62504;46.070;14.492;2022-11-18T06:48:48;10.70;99.90
64689;DHT22;62504;46.070;14.492;2022-11-18T06:51:14;10.80;99.90
64689;DHT22;62504;46.070;14.492;2022-11-18T06:53:40;10.80;99.90
64689;DHT22;62504;46.070;14.492;2022-11-18T06:56:11;10.80;99.90
64689;DHT22;62504;46.070;14.492;2022-11-18T06:58:38;10.80;99.90
64689;DHT22;62504;46.070;14.492;2022-11-18T07:03:37;10.80;99.90
64689;DHT22;62504;46.070;14.492;2022-11-18T07:06:03;10.80;99.90
64689;DHT22;62504;46.070;14.492;2022-11-18T07:08:28;10.80;99.90
64689;DHT22;62504;46.070;14.492;2022-11-18T07:10:54;10.80;99.90
64689;DHT22;62504;46.070;14.492;2022-11-18T07:13:20;10.80;99.90
64689;DHT22;62504;46.070;14.492;2022-11-18T07:15:45;10.70;99.90
64689;DHT22;62504;46.070;14.492;2022-11-18T07:18:11;10.70;99.90
64689;DHT22;62504;46.070;14.492;2022-11-18T07:20:36;10.70;99.90
64689;DHT22;62504;46.070;14.492;2022-11-18T07:23:02;10.70;99.90
64689;DHT22;62504;46.070;14.492;2022-11-18T07:25:27;10.70;99.90
64689;DHT22;62504;46.070;14.492;2022-11-18T07:27:53;10.80;99.90
64689;DHT22;62504;46.070;14.492;2022-11-18T07:30:19;10.80;99.90
64689;DHT22;62504;46.070;14.492;2022-11-18T07:32:46;10.70;99.90
64689;DHT22;62504;46.070;14.492;2022-11-18T07:35:11;10.80;99.90
64689;DHT22;62504;46.070;14.492;2022-11-18T07:37:37;10.80;99.90
64689;DHT22;62504;46.070;14.492;2022-11-18T07:40:03;10.80;99.90
64689;DHT22;62504;46.070;14.492;2022-11-18T07:42:29;10.70;99.90
64689;DHT22;62504;46.070;14.492;2022-11-18T07:45:10;10.80;99.90
64689;DHT22;62504;46.070;14.492;2022-11-18T07:47:36;10.90;99.90
64689;DHT22;62504;46.070;14.492;2022-11-18T07:50:03;11.00;99.90
64689;DHT22;62504;46.070;14.492;2022-11-18T07:52:29;11.00;99.90
64689;DHT22;62504;46.070;14.492;2022-11-18T07:54:54;11.10;99.90
64689;DHT22;62504;46.070;14.492;2022-11-18T07:57:20;11.10;99.90
64689;DHT22;62504;46.070;14.492;2022-11-18T07:59:45;11.10;99.90
64689;DHT22;62504;46.070;14.492;2022-11-18T08:02:11;11.10;99.90
64689;DHT22;62504;46.070;14.492;2022-11-18T08:04:37;11.10;99.90
64689;DHT22;62504;46.070;14.492;2022-11-18T08:07:03;11.20;99.90
64689;DHT22;62504;46.070;14.492;2022-11-18T08:09:29;11.10;99.90
64689;DHT22;62504;46.070;14.492;2022-11-18T08:11:54;11.20;99.90
64689;DHT22;62504;46.070;14.492;2022-11-18T08:14:20;11.20;99.90
64689;DHT22;62504;46.070;14.492;2022-11-18T08:16:48;11.10;99.90
64689;DHT22;62504;46.070;14.492;2022-11-18T08:19:14;11.10;99.90
64689;DHT22;62504;46.070;14.492;2022-11-18T08:21:40;11.00;99.90
64689;DHT22;62504;46.070;14.492;2022-11-18T08:24:05;11.10;99.90
64689;DHT22;62504;46.070;14.492;2022-11-18T08:26:34;11.10;99.90
64689;DHT22;62504;46.070;14.492;2022-11-18T08:29:00;10.90;99.90
64689;DHT22;62504;46.070;14.492;2022-11-18T08:31:28;10.90;99.90
64689;DHT22;62504;46.070;14.492;2022-11-18T08:33:58;11.00;99.90
64689;DHT22;62504;46.070;14.492;2022-11-18T08:36:26;10.90;99.90
64689;DHT22;62504;46.070;14.492;2022-11-18T08:38:55;11.10;99.90
64689;DHT22;62504;46.070;14.492;2022-11-18T08:43:51;11.20;99.90
64689;DHT22;62504;46.070;14.492;2022-11-18T08:46:17;11.30;99.90
64689;DHT22;62504;46.070;14.492;2022-11-18T08:48:42;11.30;99.90
64689;DHT22;62504;46.070;14.492;2022-11-18T08:51:10;11.40;99.90
64689;DHT22;62504;46.070;14.492;2022-11-18T08:53:36;11.50;99.90
64689;DHT22;62504;46.070;14.492;2022-11-18T08:56:02;11.50;99.90
64689;DHT22;62504;46.070;14.492;2022-11-18T08:58:28;11.40;99.90
64689;DHT22;62504;46.070;14.492;2022-11-18T09:00:54;11.30;99.90
64689;DHT22;62504;46.070;14.492;2022-11-18T09:03:20;11.40;99.90
64689;DHT22;62504;46.070;14.492;2022-11-18T09:05:46;11.50;99.90
64689;DHT22;62504;46.070;14.492;2022-11-18T09:08:12;11.40;99.90
64689;DHT22;62504;46.070;14.492;2022-11-18T09:10:38;11.40;99.90
64689;DHT22;62504;46.070;14.492;2022-11-18T09:13:04;11.40;99.90
64689;DHT22;62504;46.070;14.492;2022-11-18T09:15:30;11.20;99.90
64689;DHT22;62504;46.070;14.492;2022-11-18T09:17:56;11.20;99.90
64689;DHT22;62504;46.070;14.492;2022-11-18T09:20:22;11.20;99.90
64689;DHT22;62504;46.070;14.492;2022-11-18T09:22:47;11.30;99.90
64689;DHT22;62504;46.070;14.492;2022-11-18T09:25:13;11.40;99.90
64689;DHT22;62504;46.070;14.492;2022-11-18T09:27:39;11.40;99.90
64689;DHT22;62504;46.070;14.492;2022-11-18T09:30:05;11.40;99.90
64689;DHT22;62504;46.070;14.492;2022-11-18T09:32:32;11.50;99.90
64689;DHT22;62504;46.070;14.492;2022-11-18T09:34:58;11.50;99.90
64689;DHT22;62504;46.070;14.492;2022-11-18T09:37:24;11.60;99.90
64689;DHT22;62504;46.070;14.492;2022-11-18T09:39:50;11.60;99.90
64689;DHT22;62504;46.070;14.492;2022-11-18T09:42:32;11.60;99.90
64689;DHT22;62504;46.070;14.492;2022-11-18T09:47:49;11.50;99.90
64689;DHT22;62504;46.070;14.492;2022-11-18T09:50:19;11.60;99.90
64689;DHT22;62504;46.070;14.492;2022-11-18T09:55:27;11.40;99.90
64689;DHT22;62504;46.070;14.492;2022-11-18T09:57:55;11.40;99.90
64689;DHT22;62504;46.070;14.492;2022-11-18T10:00:26;11.40;99.90
64689;DHT22;62504;46.070;14.492;2022-11-18T10:03:06;11.50;99.90
64689;DHT22;62504;46.070;14.492;2022-11-18T10:05:49;11.50;99.90
64689;DHT22;62504;46.070;14.492;2022-11-18T10:10:55;11.60;99.90
64689;DHT22;62504;46.070;14.492;2022-11-18T10:16:42;11.50;99.90
64689;DHT22;62504;46.070;14.492;2022-11-18T10:19:26;11.60;99.90
64689;DHT22;62504;46.070;14.492;2022-11-18T10:24:41;11.50;99.90
64689;DHT22;62504;46.070;14.492;2022-11-18T10:27:13;11.50;99.90
64689;DHT22;62504;46.070;14.492;2022-11-18T10:29:40;11.50;99.90
64689;DHT22;62504;46.070;14.492;2022-11-18T10:34:43;11.50;99.90
64689;DHT22;62504;46.070;14.492;2022-11-18T10:37:21;11.50;99.90
64689;DHT22;62504;46.070;14.492;2022-11-18T10:39:55;11.50;99.90
64689;DHT22;62504;46.070;14.492;2022-11-18T10:42:40;11.60;99.90
64689;DHT22;62504;46.070;14.492;2022-11-18T10:45:24;11.60;99.90
64689;DHT22;62504;46.070;14.492;2022-11-18T10:50:43;11.60;99.90
64689;DHT22;62504;46.070;14.492;2022-11-18T10:53:29;11.80;99.90
64689;DHT22;62504;46.070;14.492;2022-11-18T10:56:04;11.80;99.90
64689;DHT22;62504;46.070;14.492;2022-11-18T10:58:31;11.80;99.90
64689;DHT22;62504;46.070;14.492;2022-11-18T11:03:38;11.60;99.90
64689;DHT22;62504;46.070;14.492;2022-11-18T11:09:24;11.60;99.90
64689;DHT22;62504;46.070;14.492;2022-11-18T11:14:29;11.40;99.90
64689;DHT22;62504;46.070;14.492;2022-11-18T11:19:24;11.40;99.90
64689;DHT22;62504;46.070;14.492;2022-11-18T11:21:51;11.50;99.90
64689;DHT22;62504;46.070;14.492;2022-11-18T11:24:17;11.60;99.90
64689;DHT22;62504;46.070;14.492;2022-11-18T11:27:24;11.70;99.90
64689;DHT22;62504;46.070;14.492;2022-11-18T11:36:19;11.80;99.90
64689;DHT22;62504;46.070;14.492;2022-11-18T11:41:30;11.80;99.90
64689;DHT22;62504;46.070;14.492;2022-11-18T11:50:26;12.00;99.90
64689;DHT22;62504;46.070;14.492;2022-11-18T11:53:14;12.00;99.90
64689;DHT22;62504;46.070;14.492;2022-11-18T12:01:55;11.90;99.90
64689;DHT22;62504;46.070;14.492;2022-11-18T12:07:07;11.90;99.90
64689;DHT22;62504;46.070;14.492;2022-11-18T12:10:26;11.90;99.90
64689;DHT22;62504;46.070;14.492;2022-11-18T12:12:51;12.00;99.90
64689;DHT22;62504;46.070;14.492;2022-11-18T12:23:22;11.80;99.90
64689;DHT22;62504;46.070;14.492;2022-11-18T12:25:57;11.80;99.90
64689;DHT22;62504;46.070;14.492;2022-11-18T12:33:53;11.50;99.90
64689;DHT22;62504;46.070;14.492;2022-11-18T12:36:39;11.50;99.90
64689;DHT22;62504;46.070;14.492;2022-11-18T12:44:39;11.40;99.90
64689;DHT22;62504;46.070;14.492;2022-11-18T12:47:09;11.50;99.90
64689;DHT22;62504;46.070;14.492;2022-11-18T12:52:02;11.60;99.90
64689;DHT22;62504;46.070;14.492;2022-11-18T12:54:38;11.50;99.90
64689;DHT22;62504;46.070;14.492;2022-11-18T12:57:23;11.40;99.90
64689;DHT22;62504;46.070;14.492;2022-11-18T12:59:51;11.40;99.90
64689;DHT22;62504;46.070;14.492;2022-11-18T13:05:39;11.30;99.90
64689;DHT22;62504;46.070;14.492;2022-11-18T13:08:03;11.30;99.90
64689;DHT22;62504;46.070;14.492;2022-11-18T13:13:49;11.20;99.90
64689;DHT22;62504;46.070;14.492;2022-11-18T13:16:36;11.40;99.90
64689;DHT22;62504;46.070;14.492;2022-11-18T13:19:24;11.20;99.90
64689;DHT22;62504;46.070;14.492;2022-11-18T13:21:57;11.10;99.90
64689;DHT22;62504;46.070;14.492;2022-11-18T13:24:44;11.20;99.90
64689;DHT22;62504;46.070;14.492;2022-11-18T13:30:05;11.40;99.90
64689;DHT22;62504;46.070;14.492;2022-11-18T13:32:34;11.40;99.90
64689;DHT22;62504;46.070;14.492;2022-11-18T13:35:29;11.40;99.90
64689;DHT22;62504;46.070;14.492;2022-11-18T13:37:59;11.40;99.90
64689;DHT22;62504;46.070;14.492;2022-11-18T13:40:29;11.30;99.90
64689;DHT22;62504;46.070;14.492;2022-11-18T13:42:55;11.40;99.90
64689;DHT22;62504;46.070;14.492;2022-11-18T13:45:24;11.50;99.90
64689;DHT22;62504;46.070;14.492;2022-11-18T13:48:06;11.50;99.90
64689;DHT22;62504;46.070;14.492;2022-11-18T13:50:39;11.40;99.90
64689;DHT22;62504;46.070;14.492;2022-11-18T13:56:01;11.30;99.90
64689;DHT22;62504;46.070;14.492;2022-11-18T13:58:40;11.20;99.90
64689;DHT22;62504;46.070;14.492;2022-11-18T14:01:23;11.20;99.90
64689;DHT22;62504;46.070;14.492;2022-11-18T14:03:55;11.30;99.90
64689;DHT22;62504;46.070;14.492;2022-11-18T14:06:31;11.40;99.90
64689;DHT22;62504;46.070;14.492;2022-11-18T14:09:06;11.40;99.90
64689;DHT22;62504;46.070;14.492;2022-11-18T14:11:42;11.40;99.90
64689;DHT22;62504;46.070;14.492;2022-11-18T14:14:35;11.40;99.90
64689;DHT22;62504;46.070;14.492;2022-11-18T14:17:26;11.40;99.90
64689;DHT22;62504;46.070;14.492;2022-11-18T14:19:57;11.40;99.90
64689;DHT22;62504;46.070;14.492;2022-11-18T14:22:25;11.40;99.90
64689;DHT22;62504;46.070;14.492;2022-11-18T14:25:01;11.40;99.90
64689;DHT22;62504;46.070;14.492;2022-11-18T14:27:36;11.30;99.90
64689;DHT22;62504;46.070;14.492;2022-11-18T14:35:36;11.40;99.90
64689;DHT22;62504;46.070;14.492;2022-11-18T14:38:16;11.30;99.90
64689;DHT22;62504;46.070;14.492;2022-11-18T14:40:42;11.50;99.90
64689;DHT22;62504;46.070;14.492;2022-11-18T14:43:10;11.20;99.90
64689;DHT22;62504;46.070;14.492;2022-11-18T14:45:37;11.10;99.90
64689;DHT22;62504;46.070;14.492;2022-11-18T14:48:03;10.90;99.90
64689;DHT22;62504;46.070;14.492;2022-11-18T14:50:29;11.00;99.90
64689;DHT22;62504;46.070;14.492;2022-11-18T14:52:54;11.10;99.90
64689;DHT22;62504;46.070;14.492;2022-11-18T14:55:20;11.10;99.90
64689;DHT22;62504;46.070;14.492;2022-11-18T14:57:46;11.10;99.90
64689;DHT22;62504;46.070;14.492;2022-11-18T15:00:15;11.10;99.90
64689;DHT22;62504;46.070;14.492;2022-11-18T15:02:41;11.00;99.90
64689;DHT22;62504;46.070;14.492;2022-11-18T15:05:07;11.10;99.90
64689;DHT22;62504;46.070;14.492;2022-11-18T15:07:33;11.20;99.90
64689;DHT22;62504;46.070;14.492;2022-11-18T15:09:59;11.20;99.90
64689;DHT22;62504;46.070;14.492;2022-11-18T15:12:25;11.20;99.90
64689;DHT22;62504;46.070;14.492;2022-11-18T15:14:51;11.20;99.90
64689;DHT22;62504;46.070;14.492;2022-11-18T15:17:16;11.10;99.90
64689;DHT22;62504;46.070;14.492;2022-11-18T15:19:42;11.00;99.90
64689;DHT22;62504;46.070;14.492;2022-11-18T15:22:07;10.90;99.90
64689;DHT22;62504;46.070;14.492;2022-11-18T15:24:34;11.10;99.90
64689;DHT22;62504;46.070;14.492;2022-11-18T15:26:59;11.10;99.90
64689;DHT22;62504;46.070;14.492;2022-11-18T15:29:29;11.10;99.90
64689;DHT22;62504;46.070;14.492;2022-11-18T15:31:55;10.90;99.90
64689;DHT22;62504;46.070;14.492;2022-11-18T15:34:21;10.90;99.90
64689;DHT22;62504;46.070;14.492;2022-11-18T15:36:46;11.00;99.90
64689;DHT22;62504;46.070;14.492;2022-11-18T15:39:12;11.00;99.90
64689;DHT22;62504;46.070;14.492;2022-11-18T15:41:39;11.00;99.90
64689;DHT22;62504;46.070;14.492;2022-11-18T15:44:05;10.90;99.90
64689;DHT22;62504;46.070;14.492;2022-11-18T15:46:31;10.90;99.90
64689;DHT22;62504;46.070;14.492;2022-11-18T15:48:58;10.90;99.90
64689;DHT22;62504;46.070;14.492;2022-11-18T15:51:25;10.90;99.90
64689;DHT22;62504;46.070;14.492;2022-11-18T15:53:52;10.80;99.90
64689;DHT22;62504;46.070;14.492;2022-11-18T15:59:10;10.80;99.90
64689;DHT22;62504;46.070;14.492;2022-11-18T16:01:41;10.70;99.90
64689;DHT22;62504;46.070;14.492;2022-11-18T16:04:09;10.80;99.90
64689;DHT22;62504;46.070;14.492;2022-11-18T16:06:35;10.60;99.90
64689;DHT22;62504;46.070;14.492;2022-11-18T16:09:01;10.70;99.90
64689;DHT22;62504;46.070;14.492;2022-11-18T16:11:28;10.70;99.90
64689;DHT22;62504;46.070;14.492;2022-11-18T16:14:15;10.60;99.90
64689;DHT22;62504;46.070;14.492;2022-11-18T16:16:42;10.70;99.90
64689;DHT22;62504;46.070;14.492;2022-11-18T16:19:10;10.70;99.90
64689;DHT22;62504;46.070;14.492;2022-11-18T16:21:38;10.70;99.90
64689;DHT22;62504;46.070;14.492;2022-11-18T16:24:06;10.70;99.90
64689;DHT22;62504;46.070;14.492;2022-11-18T16:26:33;10.70;99.90
64689;DHT22;62504;46.070;14.492;2022-11-18T16:29:00;10.60;99.90
64689;DHT22;62504;46.070;14.492;2022-11-18T16:31:25;10.50;99.90
64689;DHT22;62504;46.070;14.492;2022-11-18T16:34:22;10.50;99.90
64689;DHT22;62504;46.070;14.492;2022-11-18T16:36:52;10.50;99.90
64689;DHT22;62504;46.070;14.492;2022-11-18T16:39:20;10.50;99.90
64689;DHT22;62504;46.070;14.492;2022-11-18T16:41:50;10.60;99.90
64689;DHT22;62504;46.070;14.492;2022-11-18T16:44:16;10.40;99.90
64689;DHT22;62504;46.070;14.492;2022-11-18T16:46:50;10.30;99.90
64689;DHT22;62504;46.070;14.492;2022-11-18T16:49:18;10.30;99.90
64689;DHT22;62504;46.070;14.492;2022-11-18T16:51:46;10.40;99.90
64689;DHT22;62504;46.070;14.492;2022-11-18T16:54:38;10.30;99.90
64689;DHT22;62504;46.070;14.492;2022-11-18T16:57:03;10.30;99.90
64689;DHT22;62504;46.070;14.492;2022-11-18T16:59:30;10.30;99.90
64689;DHT22;62504;46.070;14.492;2022-11-18T17:01:57;10.40;99.90
64689;DHT22;62504;46.070;14.492;2022-11-18T17:04:23;10.40;99.90
64689;DHT22;62504;46.070;14.492;2022-11-18T17:06:50;10.30;99.90
64689;DHT22;62504;46.070;14.492;2022-11-18T17:09:18;10.30;99.90
64689;DHT22;62504;46.070;14.492;2022-11-18T17:11:44;10.10;99.90
64689;DHT22;62504;46.070;14.492;2022-11-18T17:14:10;10.10;99.90
64689;DHT22;62504;46.070;14.492;2022-11-18T17:16:36;9.90;99.90
64689;DHT22;62504;46.070;14.492;2022-11-18T17:19:02;10.10;99.90
64689;DHT22;62504;46.070;14.492;2022-11-18T17:21:29;10.20;99.90
64689;DHT22;62504;46.070;14.492;2022-11-18T17:23:55;10.30;99.90
64689;DHT22;62504;46.070;14.492;2022-11-18T17:26:24;10.20;99.90
64689;DHT22;62504;46.070;14.492;2022-11-18T17:28:50;10.10;99.90
64689;DHT22;62504;46.070;14.492;2022-11-18T17:31:18;10.10;99.90
64689;DHT22;62504;46.070;14.492;2022-11-18T17:33:45;10.10;99.90
64689;DHT22;62504;46.070;14.492;2022-11-18T17:36:16;10.10;99.90
64689;DHT22;62504;46.070;14.492;2022-11-18T17:38:43;9.90;99.90
64689;DHT22;62504;46.070;14.492;2022-11-18T17:41:11;9.90;99.90
64689;DHT22;62504;46.070;14.492;2022-11-18T17:43:57;9.80;99.90
64689;DHT22;62504;46.070;14.492;2022-11-18T17:46:23;9.70;99.90
64689;DHT22;62504;46.070;14.492;2022-11-18T17:48:56;9.80;99.90
64689;DHT22;62504;46.070;14.492;2022-11-18T17:51:23;9.70;99.90
64689;DHT22;62504;46.070;14.492;2022-11-18T17:53:49;9.70;99.90
64689;DHT22;62504;46.070;14.492;2022-11-18T17:56:15;9.70;99.90